createdAt,value
2016-12-31T00:00:05.022Z,82.63
2016-12-31T00:00:31.126Z,82.72
2016-12-31T00:00:57.212Z,82.82
2016-12-31T00:01:23.302Z,82.53
2016-12-31T00:01:49.407Z,82.91
2016-12-31T00:02:15.498Z,82.34
2016-12-31T00:02:41.589Z,82.82
2016-12-31T00:03:07.693Z,82.15
2016-12-31T00:03:33.784Z,82.63
2016-12-31T00:03:59.879Z,82.15
2016-12-31T00:04:25.987Z,82.72
2016-12-31T00:04:52.086Z,82.63
2016-12-31T00:05:18.176Z,82.53
2016-12-31T00:05:44.278Z,82.53
2016-12-31T00:06:10.370Z,82.44
2016-12-31T00:06:36.476Z,82.72
2016-12-31T00:07:02.575Z,82.44
2016-12-31T00:07:28.663Z,82.63
2016-12-31T00:07:54.768Z,82.44
2016-12-31T00:08:20.870Z,82.25
2016-12-31T00:08:46.960Z,82.34
2016-12-31T00:09:13.060Z,82.34
2016-12-31T00:09:39.159Z,82.15
2016-12-31T00:10:05.246Z,82.34
2016-12-31T00:10:31.343Z,82.34
2016-12-31T00:10:57.448Z,82.53
2016-12-31T00:11:23.538Z,82.82
2016-12-31T00:11:49.634Z,82.53
2016-12-31T00:12:15.724Z,82.72
2016-12-31T00:12:41.824Z,82.63
2016-12-31T00:13:07.931Z,82.34
2016-12-31T00:13:34.013Z,82.34
2016-12-31T00:14:00.110Z,82.63
2016-12-31T00:14:26.207Z,82.53
2016-12-31T00:14:52.297Z,82.53
2016-12-31T00:15:18.391Z,82.25
2016-12-31T00:15:44.497Z,82.25
2016-12-31T00:16:10.582Z,82.53
2016-12-31T00:16:36.666Z,82.44
2016-12-31T00:17:02.769Z,82.53
2016-12-31T00:17:28.869Z,82.15
2016-12-31T00:17:54.967Z,82.34
2016-12-31T00:18:21.076Z,82.44
2016-12-31T00:18:47.167Z,82.53
2016-12-31T00:19:13.268Z,82.53
2016-12-31T00:19:39.355Z,82.25
2016-12-31T00:20:05.445Z,82.72
2016-12-31T00:20:31.550Z,82.34
2016-12-31T00:20:57.641Z,82.91
2016-12-31T00:21:23.731Z,82.15
2016-12-31T00:21:49.835Z,83.01
2016-12-31T00:22:15.935Z,82.82
2016-12-31T00:22:42.029Z,82.25
2016-12-31T00:23:08.117Z,82.39
2016-12-31T00:23:34.202Z,82.67
2016-12-31T00:24:00.311Z,82.2
2016-12-31T00:24:26.401Z,82.29
2016-12-31T00:24:52.488Z,82.39
2016-12-31T00:25:18.594Z,82.01
2016-12-31T00:25:44.688Z,82.57
2016-12-31T00:26:10.779Z,81.92
2016-12-31T00:26:36.880Z,82.01
2016-12-31T00:27:02.987Z,82.1
2016-12-31T00:27:29.067Z,81.92
2016-12-31T00:27:55.162Z,81.63
2016-12-31T00:28:21.271Z,82.1
2016-12-31T00:28:47.355Z,81.92
2016-12-31T00:29:13.444Z,82.2
2016-12-31T00:29:39.551Z,82.2
2016-12-31T00:30:05.640Z,82.2
2016-12-31T00:30:31.722Z,81.87
2016-12-31T00:30:57.828Z,82.15
2016-12-31T00:31:23.924Z,81.87
2016-12-31T00:31:50.011Z,81.92
2016-12-31T00:32:16.113Z,82.1
2016-12-31T00:32:42.211Z,82.06
2016-12-31T00:33:08.292Z,82.34
2016-12-31T00:33:34.393Z,82.25
2016-12-31T00:34:00.487Z,82.15
2016-12-31T00:34:26.596Z,82.53
2016-12-31T00:34:52.691Z,82.44
2016-12-31T00:35:18.785Z,82.15
2016-12-31T00:35:44.889Z,82.06
2016-12-31T00:36:10.991Z,82.53
2016-12-31T00:36:37.082Z,82.06
2016-12-31T00:37:03.175Z,82.34
2016-12-31T00:37:29.278Z,82.25
2016-12-31T00:37:55.362Z,82.39
2016-12-31T00:38:21.461Z,82.15
2016-12-31T00:38:47.567Z,82.39
2016-12-31T00:39:13.650Z,82.01
2016-12-31T00:39:39.748Z,82.15
2016-12-31T00:40:05.841Z,81.87
2016-12-31T00:40:31.939Z,82.06
2016-12-31T00:40:58.044Z,82.06
2016-12-31T00:41:24.126Z,82.01
2016-12-31T00:41:50.220Z,82.1
2016-12-31T00:42:16.322Z,82.06
2016-12-31T00:42:42.411Z,82.15
2016-12-31T00:43:08.510Z,82.25
2016-12-31T00:43:34.608Z,81.96
2016-12-31T00:44:00.699Z,82.25
2016-12-31T00:44:26.778Z,82.1
2016-12-31T00:44:52.883Z,82.01
2016-12-31T00:45:18.978Z,81.96
2016-12-31T00:45:45.085Z,81.77
2016-12-31T00:46:11.172Z,82.06
2016-12-31T00:46:37.270Z,81.87
2016-12-31T00:47:03.376Z,82.34
2016-12-31T00:47:29.466Z,82.53
2016-12-31T00:47:55.551Z,82.25
2016-12-31T00:48:21.652Z,81.87
2016-12-31T00:48:47.744Z,81.96
2016-12-31T00:49:13.830Z,82.15
2016-12-31T00:49:39.934Z,82.06
2016-12-31T00:50:06.035Z,82.63
2016-12-31T00:50:32.119Z,81.96
2016-12-31T00:50:58.217Z,81.96
2016-12-31T00:51:24.317Z,82.15
2016-12-31T00:51:50.402Z,82.06
2016-12-31T00:52:16.505Z,82.34
2016-12-31T00:52:42.608Z,81.96
2016-12-31T00:53:08.695Z,82.15
2016-12-31T00:53:34.789Z,82.39
2016-12-31T00:54:00.892Z,82.15
2016-12-31T00:54:26.979Z,82.25
2016-12-31T00:54:53.064Z,81.96
2016-12-31T00:55:19.183Z,81.87
2016-12-31T00:55:45.272Z,81.77
2016-12-31T00:56:11.366Z,81.96
2016-12-31T00:56:37.458Z,81.96
2016-12-31T00:57:03.554Z,81.96
2016-12-31T00:57:29.657Z,82.25
2016-12-31T00:57:55.749Z,82.53
2016-12-31T00:58:21.838Z,82.34
2016-12-31T00:58:47.945Z,82.2
2016-12-31T00:59:14.032Z,81.87
2016-12-31T00:59:40.122Z,82.29
2016-12-31T01:00:06.224Z,81.72
2016-12-31T01:00:32.324Z,81.53
2016-12-31T01:00:58.407Z,81.53
2016-12-31T01:01:24.504Z,82.01
2016-12-31T01:01:50.596Z,82.01
2016-12-31T01:02:16.701Z,81.25
2016-12-31T01:02:42.791Z,81.63
2016-12-31T01:03:08.874Z,81.44
2016-12-31T01:03:34.981Z,81.34
2016-12-31T01:04:01.075Z,81.25
2016-12-31T01:04:27.168Z,81.34
2016-12-31T01:04:53.262Z,81.15
2016-12-31T01:05:19.363Z,81.53
2016-12-31T01:05:45.448Z,81.25
2016-12-31T01:06:11.549Z,81.72
2016-12-31T01:06:37.657Z,81.92
2016-12-31T01:07:03.742Z,81.92
2016-12-31T01:07:29.840Z,81.82
2016-12-31T01:07:55.928Z,81.53
2016-12-31T01:08:22.026Z,81.53
2016-12-31T01:08:48.127Z,81.44
2016-12-31T01:09:14.213Z,81.63
2016-12-31T01:09:40.332Z,81.44
2016-12-31T01:10:06.434Z,81.06
2016-12-31T01:10:32.520Z,81.25
2016-12-31T01:10:58.618Z,80.77
2016-12-31T01:11:24.723Z,80.68
2016-12-31T01:11:50.810Z,80.77
2016-12-31T01:12:16.891Z,80.87
2016-12-31T01:12:43.001Z,80.77
2016-12-31T01:13:09.098Z,81.06
2016-12-31T01:13:35.183Z,81.25
2016-12-31T01:14:01.286Z,81.06
2016-12-31T01:14:27.383Z,81.34
2016-12-31T01:14:53.469Z,81.25
2016-12-31T01:15:19.566Z,81.53
2016-12-31T01:15:45.667Z,81.53
2016-12-31T01:16:11.755Z,81.53
2016-12-31T01:16:37.853Z,81.34
2016-12-31T01:17:03.954Z,81.34
2016-12-31T01:17:30.042Z,81.44
2016-12-31T01:17:56.133Z,81.15
2016-12-31T01:18:22.229Z,81.34
2016-12-31T01:18:48.335Z,81.34
2016-12-31T01:19:14.440Z,81.34
2016-12-31T01:19:40.525Z,81.82
2016-12-31T01:20:06.617Z,81.92
2016-12-31T01:20:32.715Z,82.1
2016-12-31T01:20:58.801Z,81.82
2016-12-31T01:21:24.898Z,81.63
2016-12-31T01:21:50.997Z,81.92
2016-12-31T01:22:17.083Z,82.01
2016-12-31T01:22:43.168Z,81.92
2016-12-31T01:23:09.274Z,81.53
2016-12-31T01:23:35.373Z,82.1
2016-12-31T01:24:01.467Z,82.01
2016-12-31T01:24:27.558Z,81.63
2016-12-31T01:24:53.651Z,81.72
2016-12-31T01:25:19.761Z,81.34
2016-12-31T01:25:45.853Z,81.44
2016-12-31T01:26:11.936Z,81.72
2016-12-31T01:26:38.044Z,81.92
2016-12-31T01:27:04.138Z,81.63
2016-12-31T01:27:30.231Z,81.72
2016-12-31T01:27:56.329Z,81.63
2016-12-31T01:28:22.426Z,81.63
2016-12-31T01:28:48.505Z,81.68
2016-12-31T01:29:14.608Z,81.49
2016-12-31T01:29:40.694Z,82.06
2016-12-31T01:30:06.798Z,82.01
2016-12-31T01:30:32.891Z,82.25
2016-12-31T01:30:58.975Z,82.06
2016-12-31T01:31:25.077Z,82.25
2016-12-31T01:31:51.171Z,82.63
2016-12-31T01:32:17.263Z,82.15
2016-12-31T01:32:43.362Z,82.53
2016-12-31T01:33:09.462Z,82.91
2016-12-31T01:33:35.547Z,82.34
2016-12-31T01:34:01.646Z,82.53
2016-12-31T01:34:27.751Z,82.34
2016-12-31T01:34:53.833Z,82.53
2016-12-31T01:35:19.934Z,82.34
2016-12-31T01:35:46.016Z,82.53
2016-12-31T01:36:12.116Z,82.53
2016-12-31T01:36:38.219Z,82.25
2016-12-31T01:37:04.307Z,82.72
2016-12-31T01:37:30.406Z,82.91
2016-12-31T01:37:56.508Z,82.91
2016-12-31T01:38:22.593Z,82.63
2016-12-31T01:38:48.681Z,82.72
2016-12-31T01:39:14.785Z,83.01
2016-12-31T01:39:40.878Z,82.72
2016-12-31T01:40:06.963Z,82.63
2016-12-31T01:40:33.068Z,82.53
2016-12-31T01:40:59.160Z,83.1
2016-12-31T01:41:25.268Z,82.91
2016-12-31T01:41:51.354Z,83.01
2016-12-31T01:42:17.451Z,82.91
2016-12-31T01:42:43.549Z,83.01
2016-12-31T01:43:09.638Z,82.91
2016-12-31T01:43:35.723Z,82.91
2016-12-31T01:44:01.830Z,82.82
2016-12-31T01:44:27.927Z,82.34
2016-12-31T01:44:54.011Z,82.25
2016-12-31T01:45:20.109Z,82.34
2016-12-31T01:45:46.207Z,82.25
2016-12-31T01:46:12.333Z,82.53
2016-12-31T01:46:38.425Z,82.34
2016-12-31T01:47:04.498Z,82.63
2016-12-31T01:47:30.606Z,82.82
2016-12-31T01:47:56.701Z,82.72
2016-12-31T01:48:22.794Z,82.82
2016-12-31T01:48:48.891Z,82.91
2016-12-31T01:49:14.990Z,82.63
2016-12-31T01:49:41.071Z,82.91
2016-12-31T01:50:07.174Z,82.72
2016-12-31T01:50:33.279Z,82.44
2016-12-31T01:50:59.362Z,82.53
2016-12-31T01:51:25.458Z,82.53
2016-12-31T01:51:51.546Z,82.53
2016-12-31T01:52:17.649Z,82.44
2016-12-31T01:52:43.749Z,82.82
2016-12-31T01:53:09.837Z,82.53
2016-12-31T01:53:35.937Z,82.82
2016-12-31T01:54:02.032Z,82.53
2016-12-31T01:54:28.120Z,82.63
2016-12-31T01:54:54.219Z,82.91
2016-12-31T01:55:20.323Z,82.34
2016-12-31T01:55:46.414Z,82.25
2016-12-31T01:56:12.503Z,82.44
2016-12-31T01:56:38.612Z,82.34
2016-12-31T01:57:04.701Z,82.53
2016-12-31T01:57:30.789Z,82.25
2016-12-31T01:57:56.899Z,82.53
2016-12-31T01:58:22.993Z,82.34
2016-12-31T01:58:49.076Z,82.82
2016-12-31T01:59:15.178Z,82.91
2016-12-31T01:59:41.273Z,83.2
2016-12-31T02:00:07.360Z,82.91
2016-12-31T02:00:33.463Z,83.1
2016-12-31T02:00:59.565Z,83.1
2016-12-31T02:01:25.650Z,83.2
2016-12-31T02:01:51.745Z,83.2
2016-12-31T02:02:17.845Z,82.63
2016-12-31T02:02:43.932Z,82.82
2016-12-31T02:03:10.038Z,82.91
2016-12-31T02:03:36.119Z,82.63
2016-12-31T02:04:02.217Z,82.72
2016-12-31T02:04:28.318Z,82.53
2016-12-31T02:04:54.400Z,82.34
2016-12-31T02:05:20.511Z,82.91
2016-12-31T02:05:46.603Z,82.25
2016-12-31T02:06:12.688Z,82.53
2016-12-31T02:06:38.781Z,82.44
2016-12-31T02:07:04.888Z,82.91
2016-12-31T02:07:30.977Z,82.53
2016-12-31T02:07:57.069Z,82.53
2016-12-31T02:08:23.163Z,82.63
2016-12-31T02:08:49.263Z,82.34
2016-12-31T02:09:15.371Z,82.34
2016-12-31T02:09:41.454Z,82.25
2016-12-31T02:10:07.547Z,82.53
2016-12-31T02:10:33.644Z,82.53
2016-12-31T02:10:59.738Z,82.63
2016-12-31T02:11:25.825Z,82.34
2016-12-31T02:11:51.933Z,82.25
2016-12-31T02:12:18.020Z,82.72
2016-12-31T02:12:44.112Z,83.2
2016-12-31T02:13:10.210Z,82.63
2016-12-31T02:13:36.308Z,82.72
2016-12-31T02:14:02.407Z,82.63
2016-12-31T02:14:28.523Z,82.34
2016-12-31T02:14:54.605Z,82.63
2016-12-31T02:15:20.719Z,82.63
2016-12-31T02:15:46.807Z,81.87
2016-12-31T02:16:12.897Z,82.25
2016-12-31T02:16:39.001Z,82.34
2016-12-31T02:17:05.103Z,82.34
2016-12-31T02:17:31.188Z,82.25
2016-12-31T02:17:57.284Z,82.25
2016-12-31T02:18:23.387Z,82.15
2016-12-31T02:18:49.474Z,82.25
2016-12-31T02:19:15.564Z,82.44
2016-12-31T02:19:41.656Z,82.25
2016-12-31T02:20:07.755Z,82.15
2016-12-31T02:20:33.853Z,82.06
2016-12-31T02:20:59.940Z,82.25
2016-12-31T02:21:26.065Z,82.57
2016-12-31T02:21:52.169Z,82.06
2016-12-31T02:22:18.257Z,82.15
2016-12-31T02:22:44.348Z,81.44
2016-12-31T02:23:10.455Z,81.72
2016-12-31T02:23:36.539Z,81.63
2016-12-31T02:24:02.636Z,81.82
2016-12-31T02:24:28.735Z,81.82
2016-12-31T02:24:54.823Z,81.92
2016-12-31T02:25:20.930Z,82.1
2016-12-31T02:25:47.055Z,81.96
2016-12-31T02:26:13.157Z,81.68
2016-12-31T02:26:39.259Z,81.4
2016-12-31T02:27:05.343Z,81.68
2016-12-31T02:27:31.432Z,81.96
2016-12-31T02:27:57.535Z,82.34
2016-12-31T02:28:23.627Z,82.25
2016-12-31T02:28:49.712Z,82.44
2016-12-31T02:29:15.818Z,81.96
2016-12-31T02:29:41.909Z,82.06
2016-12-31T02:30:08.000Z,81.96
2016-12-31T02:30:34.101Z,82.06
2016-12-31T02:31:00.188Z,82.44
2016-12-31T02:31:26.292Z,82.53
2016-12-31T02:31:52.388Z,82.34
2016-12-31T02:32:18.472Z,81.96
2016-12-31T02:32:44.575Z,82.63
2016-12-31T02:33:10.668Z,83.01
2016-12-31T02:33:36.751Z,82.72
2016-12-31T02:34:02.857Z,82.15
2016-12-31T02:34:28.955Z,82.25
2016-12-31T02:34:55.041Z,82.44
2016-12-31T02:35:21.135Z,82.25
2016-12-31T02:35:47.233Z,82.63
2016-12-31T02:36:13.326Z,83.01
2016-12-31T02:36:39.426Z,82.63
2016-12-31T02:37:05.509Z,82.82
2016-12-31T02:37:31.617Z,82.44
2016-12-31T02:37:57.712Z,82.53
2016-12-31T02:38:23.800Z,82.34
2016-12-31T02:38:49.894Z,82.72
2016-12-31T02:39:16.001Z,82.53
2016-12-31T02:39:42.077Z,82.63
2016-12-31T02:40:08.175Z,82.53
2016-12-31T02:40:34.270Z,82.82
2016-12-31T02:41:00.362Z,82.91
2016-12-31T02:41:26.479Z,83.2
2016-12-31T02:41:52.581Z,83.2
2016-12-31T02:42:18.675Z,82.91
2016-12-31T02:42:44.759Z,82.91
2016-12-31T02:43:10.866Z,83.01
2016-12-31T02:43:36.957Z,82.72
2016-12-31T02:44:03.047Z,82.44
2016-12-31T02:44:29.154Z,82.53
2016-12-31T02:44:55.255Z,82.53
2016-12-31T02:45:21.334Z,82.44
2016-12-31T02:45:47.430Z,82.44
2016-12-31T02:46:13.527Z,82.72
2016-12-31T02:46:39.611Z,82.82
2016-12-31T02:47:05.713Z,82.72
2016-12-31T02:47:31.799Z,83.1
2016-12-31T02:47:57.901Z,82.63
2016-12-31T02:48:23.998Z,83.2
2016-12-31T02:48:50.087Z,82.72
2016-12-31T02:49:16.182Z,82.72
2016-12-31T02:49:42.286Z,82.63
2016-12-31T02:50:08.366Z,82.72
2016-12-31T02:50:34.464Z,82.91
2016-12-31T02:51:00.572Z,82.63
2016-12-31T02:51:26.682Z,82.82
2016-12-31T02:51:52.777Z,83.01
2016-12-31T02:52:18.879Z,82.82
2016-12-31T02:52:44.968Z,82.63
2016-12-31T02:53:11.069Z,82.53
2016-12-31T02:53:37.176Z,82.44
2016-12-31T02:54:03.271Z,82.44
2016-12-31T02:54:29.379Z,82.34
2016-12-31T02:54:55.459Z,82.82
2016-12-31T02:55:21.564Z,82.63
2016-12-31T02:55:47.662Z,82.63
2016-12-31T02:56:13.749Z,82.53
2016-12-31T02:56:39.829Z,82.34
2016-12-31T02:57:05.936Z,82.53
2016-12-31T02:57:32.029Z,82.25
2016-12-31T02:57:58.118Z,82.53
2016-12-31T02:58:24.220Z,82.34
2016-12-31T02:58:50.313Z,82.53
2016-12-31T02:59:16.421Z,82.44
2016-12-31T02:59:42.509Z,82.34
2016-12-31T03:00:08.601Z,82.72
2016-12-31T03:00:34.709Z,82.91
2016-12-31T03:01:00.804Z,82.72
2016-12-31T03:01:26.888Z,83.2
2016-12-31T03:01:52.994Z,82.91
2016-12-31T03:02:19.092Z,82.72
2016-12-31T03:02:45.180Z,83.01
2016-12-31T03:03:11.272Z,83.29
2016-12-31T03:03:37.375Z,83.67
2016-12-31T03:04:03.468Z,83.39
2016-12-31T03:04:29.556Z,83.39
2016-12-31T03:04:55.647Z,83.29
2016-12-31T03:05:21.748Z,83.2
2016-12-31T03:05:47.848Z,83.2
2016-12-31T03:06:13.930Z,83.67
2016-12-31T03:06:40.029Z,83.39
2016-12-31T03:07:06.135Z,83.76
2016-12-31T03:07:32.218Z,83.76
2016-12-31T03:07:58.316Z,83.48
2016-12-31T03:08:24.415Z,83.76
2016-12-31T03:08:50.499Z,83.58
2016-12-31T03:09:16.589Z,83.48
2016-12-31T03:09:42.710Z,83.39
2016-12-31T03:10:08.788Z,83.48
2016-12-31T03:10:34.886Z,84.05
2016-12-31T03:11:00.971Z,83.58
2016-12-31T03:11:27.065Z,84.05
2016-12-31T03:11:53.174Z,83.76
2016-12-31T03:12:19.257Z,84.05
2016-12-31T03:12:45.346Z,83.95
2016-12-31T03:13:11.450Z,83.76
2016-12-31T03:13:37.536Z,83.58
2016-12-31T03:14:03.619Z,83.95
2016-12-31T03:14:29.728Z,83.76
2016-12-31T03:14:55.819Z,83.86
2016-12-31T03:15:21.947Z,83.95
2016-12-31T03:15:48.029Z,83.67
2016-12-31T03:16:14.123Z,83.76
2016-12-31T03:16:40.228Z,83.58
2016-12-31T03:17:06.316Z,84.05
2016-12-31T03:17:32.393Z,83.58
2016-12-31T03:17:58.505Z,83.58
2016-12-31T03:18:24.599Z,83.39
2016-12-31T03:18:50.706Z,83.86
2016-12-31T03:19:16.809Z,84.05
2016-12-31T03:19:42.902Z,83.29
2016-12-31T03:20:08.985Z,83.48
2016-12-31T03:20:35.087Z,83.39
2016-12-31T03:21:01.179Z,83.29
2016-12-31T03:21:27.303Z,83.48
2016-12-31T03:21:53.428Z,83.48
2016-12-31T03:22:19.511Z,83.76
2016-12-31T03:22:45.617Z,83.39
2016-12-31T03:23:11.714Z,83.48
2016-12-31T03:23:37.803Z,83.48
2016-12-31T03:24:03.897Z,83.58
2016-12-31T03:24:29.998Z,83.67
2016-12-31T03:24:56.080Z,83.48
2016-12-31T03:25:22.175Z,83.2
2016-12-31T03:25:48.280Z,83.01
2016-12-31T03:26:14.364Z,83.29
2016-12-31T03:26:40.459Z,83.58
2016-12-31T03:27:06.560Z,83.67
2016-12-31T03:27:32.645Z,83.76
2016-12-31T03:27:58.731Z,83.58
2016-12-31T03:28:24.838Z,83.29
2016-12-31T03:28:50.935Z,83.29
2016-12-31T03:29:17.017Z,83.39
2016-12-31T03:29:43.118Z,83.48
2016-12-31T03:30:09.207Z,83.39
2016-12-31T03:30:35.294Z,83.48
2016-12-31T03:31:01.390Z,83.58
2016-12-31T03:31:27.489Z,83.76
2016-12-31T03:31:53.574Z,83.76
2016-12-31T03:32:19.667Z,83.76
2016-12-31T03:32:45.757Z,83.39
2016-12-31T03:33:11.860Z,83.67
2016-12-31T03:33:37.960Z,83.58
2016-12-31T03:34:04.047Z,83.48
2016-12-31T03:34:30.141Z,83.58
2016-12-31T03:34:56.243Z,83.58
2016-12-31T03:35:22.326Z,83.76
2016-12-31T03:35:48.420Z,83.48
2016-12-31T03:36:14.523Z,83.67
2016-12-31T03:36:40.606Z,83.39
2016-12-31T03:37:06.704Z,83.48
2016-12-31T03:37:32.800Z,84.14
2016-12-31T03:37:58.905Z,83.95
2016-12-31T03:38:24.997Z,83.95
2016-12-31T03:38:51.090Z,84.52
2016-12-31T03:39:17.186Z,84.81
2016-12-31T03:39:43.289Z,84.71
2016-12-31T03:40:09.393Z,85.09
2016-12-31T03:40:35.482Z,85.47
2016-12-31T03:41:01.572Z,85.38
2016-12-31T03:41:27.699Z,85.19
2016-12-31T03:41:53.808Z,85.94
2016-12-31T03:42:19.891Z,85.66
2016-12-31T03:42:45.988Z,85.28
2016-12-31T03:43:12.074Z,85.94
2016-12-31T03:43:38.174Z,85.94
2016-12-31T03:44:04.268Z,85.94
2016-12-31T03:44:30.357Z,86.04
2016-12-31T03:44:56.456Z,85.75
2016-12-31T03:45:22.564Z,85.94
2016-12-31T03:45:48.646Z,86.04
2016-12-31T03:46:14.735Z,86.13
2016-12-31T03:46:40.838Z,85.94
2016-12-31T03:47:06.925Z,85.94
2016-12-31T03:47:33.020Z,86.6
2016-12-31T03:47:59.122Z,86.41
2016-12-31T03:48:25.217Z,86.32
2016-12-31T03:48:51.317Z,86.7
2016-12-31T03:49:17.398Z,87.08
2016-12-31T03:49:43.500Z,86.89
2016-12-31T03:50:09.598Z,86.98
2016-12-31T03:50:35.683Z,87.08
2016-12-31T03:51:01.777Z,87.08
2016-12-31T03:51:27.913Z,86.79
2016-12-31T03:51:54.001Z,86.98
2016-12-31T03:52:20.089Z,86.98
2016-12-31T03:52:46.190Z,86.89
2016-12-31T03:53:12.289Z,87.04
2016-12-31T03:53:38.375Z,87.74
2016-12-31T03:54:04.479Z,87.08
2016-12-31T03:54:30.568Z,86.98
2016-12-31T03:54:56.674Z,87.17
2016-12-31T03:55:22.761Z,87.74
2016-12-31T03:55:48.845Z,87.17
2016-12-31T03:56:14.953Z,87.23
2016-12-31T03:56:41.044Z,86.94
2016-12-31T03:57:07.133Z,86.98
2016-12-31T03:57:33.233Z,86.98
2016-12-31T03:57:59.328Z,87.74
2016-12-31T03:58:25.416Z,87.23
2016-12-31T03:58:51.514Z,87.08
2016-12-31T03:59:17.618Z,87.84
2016-12-31T03:59:43.704Z,86.98
2016-12-31T04:00:09.798Z,87.17
2016-12-31T04:00:35.879Z,87.17
2016-12-31T04:01:01.982Z,86.98
2016-12-31T04:01:28.082Z,87.08
2016-12-31T04:01:54.167Z,87.08
2016-12-31T04:02:20.262Z,87.08
2016-12-31T04:02:46.363Z,86.89
2016-12-31T04:03:12.450Z,86.7
2016-12-31T04:03:38.544Z,86.79
2016-12-31T04:04:04.646Z,86.79
2016-12-31T04:04:30.731Z,86.41
2016-12-31T04:04:56.822Z,86.32
2016-12-31T04:05:22.911Z,86.22
2016-12-31T04:05:49.009Z,86.22
2016-12-31T04:06:15.112Z,86.41
2016-12-31T04:06:41.201Z,86.6
2016-12-31T04:07:07.292Z,87.23
2016-12-31T04:07:33.397Z,87.27
2016-12-31T04:07:59.482Z,86.94
2016-12-31T04:08:25.577Z,86.98
2016-12-31T04:08:51.673Z,87.32
2016-12-31T04:09:17.767Z,87.51
2016-12-31T04:09:43.846Z,87.55
2016-12-31T04:10:09.957Z,86.98
2016-12-31T04:10:36.045Z,87.84
2016-12-31T04:11:02.131Z,87.27
2016-12-31T04:11:28.234Z,86.89
2016-12-31T04:11:54.333Z,87.04
2016-12-31T04:12:20.421Z,87.23
2016-12-31T04:12:46.518Z,87.41
2016-12-31T04:13:12.626Z,87.65
2016-12-31T04:13:38.704Z,87.41
2016-12-31T04:14:04.806Z,87.32
2016-12-31T04:14:30.904Z,88.17
2016-12-31T04:14:56.992Z,87.98
2016-12-31T04:15:23.079Z,88.17
2016-12-31T04:15:49.187Z,88.07
2016-12-31T04:16:15.279Z,88.36
2016-12-31T04:16:41.378Z,88.36
2016-12-31T04:17:07.465Z,88.45
2016-12-31T04:17:33.556Z,87.98
2016-12-31T04:17:59.657Z,88.36
2016-12-31T04:18:25.744Z,88.17
2016-12-31T04:18:51.834Z,88.26
2016-12-31T04:19:17.938Z,87.74
2016-12-31T04:19:44.026Z,88.17
2016-12-31T04:20:10.117Z,88.17
2016-12-31T04:20:36.222Z,88.45
2016-12-31T04:21:02.317Z,88.45
2016-12-31T04:21:28.398Z,88.59
2016-12-31T04:21:54.503Z,88.36
2016-12-31T04:22:20.592Z,88.17
2016-12-31T04:22:46.688Z,88.21
2016-12-31T04:23:12.774Z,88.31
2016-12-31T04:23:38.862Z,87.98
2016-12-31T04:24:04.971Z,88.12
2016-12-31T04:24:31.060Z,88.12
2016-12-31T04:24:57.150Z,88.02
2016-12-31T04:25:23.250Z,88.07
2016-12-31T04:25:49.345Z,88.12
2016-12-31T04:26:15.426Z,88.21
2016-12-31T04:26:41.524Z,88.07
2016-12-31T04:27:07.631Z,88.36
2016-12-31T04:27:33.716Z,87.88
2016-12-31T04:27:59.804Z,88.26
2016-12-31T04:28:25.889Z,87.98
2016-12-31T04:28:51.990Z,88.36
2016-12-31T04:29:18.087Z,87.88
2016-12-31T04:29:44.167Z,88.26
2016-12-31T04:30:10.270Z,88.07
2016-12-31T04:30:36.365Z,88.07
2016-12-31T04:31:02.453Z,88.55
2016-12-31T04:31:28.548Z,88.64
2016-12-31T04:31:54.655Z,88.64
2016-12-31T04:32:20.736Z,88.74
2016-12-31T04:32:46.828Z,88.55
2016-12-31T04:33:12.922Z,88.64
2016-12-31T04:33:39.019Z,88.55
2016-12-31T04:34:05.126Z,88.55
2016-12-31T04:34:31.201Z,88.74
2016-12-31T04:34:57.303Z,88.07
2016-12-31T04:35:23.401Z,88.26
2016-12-31T04:35:49.487Z,88.45
2016-12-31T04:36:15.575Z,87.98
2016-12-31T04:36:41.679Z,87.98
2016-12-31T04:37:07.770Z,88.26
2016-12-31T04:37:33.880Z,88.45
2016-12-31T04:37:59.990Z,88.17
2016-12-31T04:38:26.071Z,87.51
2016-12-31T04:38:52.170Z,87.27
2016-12-31T04:39:18.255Z,87.08
2016-12-31T04:39:44.345Z,87.36
2016-12-31T04:40:10.449Z,87.74
2016-12-31T04:40:36.536Z,87.08
2016-12-31T04:41:02.625Z,87.08
2016-12-31T04:41:28.730Z,87.27
2016-12-31T04:41:54.824Z,87.13
2016-12-31T04:42:20.907Z,86.98
2016-12-31T04:42:47.011Z,87.17
2016-12-31T04:43:13.112Z,87.17
2016-12-31T04:43:39.195Z,87.17
2016-12-31T04:44:05.289Z,86.89
2016-12-31T04:44:31.374Z,86.89
2016-12-31T04:44:57.485Z,86.66
2016-12-31T04:45:23.578Z,86.94
2016-12-31T04:45:49.666Z,86.94
2016-12-31T04:46:15.764Z,86.6
2016-12-31T04:46:41.859Z,86.75
2016-12-31T04:47:07.946Z,86.47
2016-12-31T04:47:34.043Z,86.94
2016-12-31T04:48:00.149Z,86.56
2016-12-31T04:48:26.233Z,86.47
2016-12-31T04:48:52.326Z,86.41
2016-12-31T04:49:18.429Z,86.47
2016-12-31T04:49:44.516Z,86.89
2016-12-31T04:50:10.615Z,86.66
2016-12-31T04:50:36.695Z,86.18
2016-12-31T04:51:02.795Z,86.41
2016-12-31T04:51:28.893Z,86.51
2016-12-31T04:51:54.979Z,86.7
2016-12-31T04:52:21.072Z,86.6
2016-12-31T04:52:47.181Z,86.6
2016-12-31T04:53:13.260Z,86.13
2016-12-31T04:53:39.352Z,85.66
2016-12-31T04:54:05.456Z,85.85
2016-12-31T04:54:31.565Z,85.94
2016-12-31T04:54:57.632Z,86.22
2016-12-31T04:55:23.733Z,86.04
2016-12-31T04:55:49.831Z,85.75
2016-12-31T04:56:15.912Z,85.66
2016-12-31T04:56:42.014Z,85.8
2016-12-31T04:57:08.103Z,86.04
2016-12-31T04:57:34.193Z,85.94
2016-12-31T04:58:00.294Z,85.75
2016-12-31T04:58:26.397Z,85.85
2016-12-31T04:58:52.484Z,85.47
2016-12-31T04:59:18.582Z,85.75
2016-12-31T04:59:44.714Z,85.75
2016-12-31T05:00:10.805Z,85.09
2016-12-31T05:00:36.905Z,84.9
2016-12-31T05:01:02.996Z,85.28
2016-12-31T05:01:29.092Z,85.19
2016-12-31T05:01:55.200Z,85.19
2016-12-31T05:02:21.279Z,85.38
2016-12-31T05:02:47.375Z,85.19
2016-12-31T05:03:13.475Z,85.09
2016-12-31T05:03:39.563Z,84.9
2016-12-31T05:04:05.651Z,85.19
2016-12-31T05:04:31.753Z,85.66
2016-12-31T05:04:57.839Z,85.19
2016-12-31T05:05:23.926Z,85.57
2016-12-31T05:05:50.024Z,85.71
2016-12-31T05:06:16.117Z,85.8
2016-12-31T05:06:42.217Z,85.9
2016-12-31T05:07:08.303Z,86.09
2016-12-31T05:07:34.400Z,86.09
2016-12-31T05:08:00.497Z,85.61
2016-12-31T05:08:26.587Z,85.9
2016-12-31T05:08:52.677Z,86.09
2016-12-31T05:09:18.783Z,85.9
2016-12-31T05:09:44.871Z,85.99
2016-12-31T05:10:10.960Z,85.9
2016-12-31T05:10:37.061Z,85.52
2016-12-31T05:11:03.159Z,85.85
2016-12-31T05:11:29.251Z,85.33
2016-12-31T05:11:55.349Z,85.71
2016-12-31T05:12:21.429Z,85.61
2016-12-31T05:12:47.539Z,85.71
2016-12-31T05:13:13.630Z,85.57
2016-12-31T05:13:39.722Z,85.28
2016-12-31T05:14:05.826Z,84.95
2016-12-31T05:14:31.923Z,85.24
2016-12-31T05:14:58.011Z,85.14
2016-12-31T05:15:24.119Z,85.19
2016-12-31T05:15:50.214Z,85.71
2016-12-31T05:16:16.299Z,85.24
2016-12-31T05:16:42.392Z,85.9
2016-12-31T05:17:08.491Z,85.75
2016-12-31T05:17:34.576Z,85.94
2016-12-31T05:18:00.669Z,85.85
2016-12-31T05:18:26.761Z,85.47
2016-12-31T05:18:52.861Z,85.33
2016-12-31T05:19:18.964Z,85.38
2016-12-31T05:19:45.055Z,85.38
2016-12-31T05:20:11.151Z,85.38
2016-12-31T05:20:37.254Z,85.75
2016-12-31T05:21:03.337Z,85.47
2016-12-31T05:21:29.426Z,85.19
2016-12-31T05:21:55.533Z,85.14
2016-12-31T05:22:21.623Z,85.09
2016-12-31T05:22:47.712Z,85
2016-12-31T05:23:13.811Z,85.09
2016-12-31T05:23:39.905Z,85.09
2016-12-31T05:24:06.007Z,85.85
2016-12-31T05:24:32.088Z,85
2016-12-31T05:24:58.181Z,84.9
2016-12-31T05:25:24.280Z,85
2016-12-31T05:25:50.368Z,85.38
2016-12-31T05:26:16.453Z,85.28
2016-12-31T05:26:42.558Z,85.19
2016-12-31T05:27:08.655Z,85.19
2016-12-31T05:27:34.738Z,85.28
2016-12-31T05:28:00.835Z,85.19
2016-12-31T05:28:26.924Z,85.28
2016-12-31T05:28:53.021Z,85.38
2016-12-31T05:29:19.112Z,85.38
2016-12-31T05:29:45.198Z,85.28
2016-12-31T05:30:11.309Z,85.38
2016-12-31T05:30:37.406Z,85.47
2016-12-31T05:31:03.495Z,85.38
2016-12-31T05:31:29.596Z,85.28
2016-12-31T05:31:55.689Z,85.28
2016-12-31T05:32:21.772Z,85.09
2016-12-31T05:32:47.878Z,85.57
2016-12-31T05:33:13.976Z,85.47
2016-12-31T05:33:40.063Z,85.47
2016-12-31T05:34:06.155Z,85.47
2016-12-31T05:34:32.249Z,85.47
2016-12-31T05:34:58.347Z,85.28
2016-12-31T05:35:24.451Z,85.19
2016-12-31T05:35:50.536Z,85.09
2016-12-31T05:36:16.633Z,85.66
2016-12-31T05:36:42.732Z,85.57